Time;durP1;ratioP1;P1;durP2;ratioP2;P2;SDS_P1;SDS_P2;PMS_P1;PMS_P2;Temp;Humidity;BMP_temperature;BMP_pressure;BME280_temperature;BME280_humidity;BME280_pressure;Samples;Min_cycle;Max_cycle;Signal;HPM_P1;HPM_P2
2024/03/10 00:01:58;;;;;;;5.50;5.30;;;24.60;1.00;;;;;;2608184;54;20506;-60
2024/03/10 00:04:24;;;;;;;5.77;5.57;;;24.60;1.00;;;;;;2606123;54;20400;-60
2024/03/10 00:06:50;;;;;;;6.10;5.90;;;24.60;1.00;;;;;;2609147;54;20395;-60
2024/03/10 00:09:16;;;;;;;6.30;6.10;;;24.60;1.00;;;;;;2611734;54;21084;-59
2024/03/10 00:11:43;;;;;;;6.23;6.03;;;24.60;1.00;;;;;;2612182;54;20193;-60
2024/03/10 00:14:09;;;;;;;6.00;5.80;;;24.50;1.00;;;;;;2611681;54;20391;-62
2024/03/10 00:16:35;;;;;;;6.23;6.03;;;24.50;1.00;;;;;;2611256;39;21024;-60
2024/03/10 00:19:01;;;;;;;6.00;5.80;;;24.60;1.00;;;;;;2610173;54;20422;-61
2024/03/10 00:21:27;;;;;;;6.10;5.90;;;24.50;1.00;;;;;;2606321;47;20446;-60
2024/03/10 00:23:52;;;;;;;6.27;6.07;;;24.60;1.00;;;;;;2610110;54;20399;-60
2024/03/10 00:26:18;;;;;;;6.20;6.00;;;24.50;1.00;;;;;;2612579;54;20170;-59
2024/03/10 00:28:44;;;;;;;6.40;6.20;;;24.50;1.00;;;;;;2609082;54;20269;-59
2024/03/10 00:31:10;;;;;;;6.37;6.17;;;24.50;1.00;;;;;;2611410;54;20158;-58
2024/03/10 00:33:37;;;;;;;6.50;6.30;;;24.50;1.00;;;;;;2613415;54;20439;-58
2024/03/10 00:36:05;;;;;;;6.50;6.30;;;24.50;1.00;;;;;;2611995;54;20155;-58
2024/03/10 00:38:30;;;;;;;6.60;6.40;;;24.40;1.00;;;;;;2611948;54;20495;-58
2024/03/10 00:40:56;;;;;;;6.50;6.30;;;24.40;1.00;;;;;;2611925;54;20400;-58
2024/03/10 00:43:22;;;;;;;6.20;6.00;;;24.50;1.00;;;;;;2610908;54;20423;-58
2024/03/10 00:45:50;;;;;;;6.20;6.00;;;24.50;1.00;;;;;;2607159;54;20808;-58
2024/03/10 00:48:17;;;;;;;6.40;6.20;;;24.50;1.00;;;;;;2608090;54;20150;-58
2024/03/10 00:50:42;;;;;;;5.23;5.03;;;24.50;1.00;;;;;;2608419;54;21460;-58
2024/03/10 00:53:09;;;;;;;5.70;5.50;;;24.50;1.00;;;;;;2612681;54;20505;-58
2024/03/10 00:55:34;;;;;;;6.50;6.30;;;24.50;1.00;;;;;;2610996;47;20155;-58
2024/03/10 00:58:00;;;;;;;6.50;6.30;;;24.40;1.00;;;;;;2608714;54;20403;-60
2024/03/10 01:00:26;;;;;;;6.73;6.53;;;24.40;1.00;;;;;;2610830;47;20170;-58
2024/03/10 01:02:52;;;;;;;6.57;6.37;;;24.40;1.00;;;;;;2607496;39;20257;-58
2024/03/10 01:05:18;;;;;;;6.20;6.00;;;24.40;1.00;;;;;;2607226;47;20431;-58
2024/03/10 01:07:43;;;;;;;5.73;5.53;;;24.40;1.00;;;;;;2610821;54;20193;-58
2024/03/10 01:10:11;;;;;;;5.80;5.60;;;24.40;1.00;;;;;;2612596;54;20402;-58
2024/03/10 01:12:38;;;;;;;5.90;5.70;;;24.40;1.00;;;;;;2610566;54;20167;-58
2024/03/10 01:15:05;;;;;;;5.50;5.30;;;24.40;1.00;;;;;;2610766;54;20392;-58
2024/03/10 01:17:31;;;;;;;5.80;5.60;;;24.30;1.00;;;;;;2612346;54;20424;-57
2024/03/10 01:19:58;;;;;;;5.80;5.60;;;24.30;1.00;;;;;;2612528;54;20990;-60
2024/03/10 01:22:24;;;;;;;6.40;6.20;;;24.40;1.00;;;;;;2611591;54;20407;-59
2024/03/10 01:24:49;;;;;;;6.20;6.00;;;24.40;1.00;;;;;;2611108;54;20410;-60
2024/03/10 01:27:15;;;;;;;6.00;5.80;;;24.30;1.00;;;;;;2611483;54;20419;-58
2024/03/10 01:29:41;;;;;;;5.90;5.70;;;24.30;1.00;;;;;;2609577;54;20214;-58
2024/03/10 01:32:07;;;;;;;6.17;5.97;;;24.30;1.00;;;;;;2612087;54;20174;-58
2024/03/10 01:34:34;;;;;;;6.10;5.90;;;24.30;1.00;;;;;;2611145;54;20190;-58
2024/03/10 01:37:00;;;;;;;6.10;5.90;;;24.30;1.00;;;;;;2610874;54;20404;-58
2024/03/10 01:39:27;;;;;;;5.60;5.40;;;24.30;1.00;;;;;;2612160;54;20515;-58
2024/03/10 01:41:54;;;;;;;5.70;5.50;;;24.20;1.00;;;;;;2611562;54;20158;-58
2024/03/10 01:44:20;;;;;;;5.80;5.60;;;24.20;1.00;;;;;;2609528;54;20411;-59
2024/03/10 01:46:47;;;;;;;7.03;6.83;;;24.30;1.00;;;;;;2606908;54;21169;-58
2024/03/10 01:49:13;;;;;;;5.90;5.70;;;24.20;1.00;;;;;;2607685;54;20435;-59
2024/03/10 01:51:41;;;;;;;6.30;6.10;;;24.30;1.00;;;;;;2606121;54;20439;-59
2024/03/10 01:54:11;;;;;;;6.43;6.23;;;24.30;1.00;;;;;;2606929;39;21334;-59
2024/03/10 01:56:38;;;;;;;6.77;6.57;;;24.30;1.00;;;;;;2610848;54;21360;-59
2024/03/10 01:59:06;;;;;;;6.50;6.30;;;24.30;1.00;;;;;;2612707;54;20466;-59
2024/03/10 02:01:35;;;;;;;6.20;6.00;;;24.30;1.00;;;;;;2610280;47;20450;-59
2024/03/10 02:04:01;;;;;;;6.40;6.20;;;24.20;1.00;;;;;;2606631;54;20411;-59
2024/03/10 02:06:27;;;;;;;6.47;6.27;;;24.20;1.00;;;;;;2610220;54;20422;-59
2024/03/10 02:08:54;;;;;;;6.70;6.50;;;24.20;1.00;;;;;;2609801;54;20439;-59
2024/03/10 02:11:20;;;;;;;5.90;5.70;;;24.20;1.00;;;;;;2611356;54;20143;-59
2024/03/10 02:13:47;;;;;;;5.60;5.40;;;24.20;1.00;;;;;;2611681;54;20399;-59
2024/03/10 02:16:13;;;;;;;5.50;5.30;;;24.20;1.00;;;;;;2611710;54;20408;-57
2024/03/10 02:18:39;;;;;;;5.70;5.50;;;24.20;1.00;;;;;;2611862;54;20422;-59
2024/03/10 02:21:08;;;;;;;6.03;5.83;;;24.30;1.00;;;;;;2610852;54;20992;-59
2024/03/10 02:23:46;;;;;;;6.10;5.90;;;24.30;1.00;;;;;;2611685;54;20675;-59
2024/03/10 02:26:15;;;;;;;6.00;5.80;;;24.30;1.00;;;;;;2612567;39;20796;-59
2024/03/10 02:28:56;;;;;;;5.67;5.47;;;24.30;1.00;;;;;;2610613;54;20391;-59
2024/03/10 02:47:50;;;;;;;6.00;5.80;;;24.30;1.00;;;;;;2612732;54;21370;-61
2024/03/10 02:50:16;;;;;;;6.30;6.10;;;24.20;1.00;;;;;;2610053;54;20411;-59
2024/03/10 02:52:41;;;;;;;6.20;6.00;;;24.20;1.00;;;;;;2612344;54;20250;-59
2024/03/10 02:55:08;;;;;;;6.40;6.20;;;24.20;1.00;;;;;;2608740;54;20158;-59
2024/03/10 02:57:34;;;;;;;6.10;5.90;;;24.10;1.00;;;;;;2608901;54;20158;-60
2024/03/10 03:00:00;;;;;;;6.57;6.37;;;24.10;1.00;;;;;;2611200;54;20406;-59
2024/03/10 03:02:29;;;;;;;6.30;6.10;;;24.10;1.00;;;;;;2609509;54;20181;-60
2024/03/10 03:04:55;;;;;;;6.00;5.80;;;24.10;1.00;;;;;;2606776;54;20399;-60
2024/03/10 03:07:21;;;;;;;6.00;5.80;;;24.10;1.00;;;;;;2609667;54;20420;-61
2024/03/10 03:09:47;;;;;;;6.00;5.80;;;24.10;1.00;;;;;;2611513;54;21000;-60
2024/03/10 03:12:14;;;;;;;5.90;5.70;;;24.10;1.00;;;;;;2613215;47;20452;-61
2024/03/10 03:14:40;;;;;;;5.60;5.40;;;24.10;1.00;;;;;;2612240;54;20185;-60
2024/03/10 03:17:06;;;;;;;5.67;5.47;;;24.10;1.00;;;;;;2612153;54;20584;-60
2024/03/10 03:19:36;;;;;;;5.93;5.73;;;24.10;1.00;;;;;;2612421;51;20462;-60
2024/03/10 03:22:04;;;;;;;6.07;5.87;;;24.10;1.00;;;;;;2611473;54;20727;-60
2024/03/10 03:24:30;;;;;;;6.80;6.60;;;24.10;1.00;;;;;;2613893;39;20813;-60
2024/03/10 03:26:56;;;;;;;6.50;6.30;;;24.20;1.00;;;;;;2611295;47;20435;-60
2024/03/10 03:29:21;;;;;;;6.50;6.30;;;24.10;1.00;;;;;;2612892;54;20387;-59
2024/03/10 03:31:47;;;;;;;6.10;5.90;;;24.10;1.00;;;;;;2612478;54;20150;-60
2024/03/10 03:34:13;;;;;;;6.40;6.20;;;24.10;1.00;;;;;;2613902;54;20159;-61
2024/03/10 03:36:39;;;;;;;6.60;6.40;;;24.10;1.00;;;;;;2612223;54;20188;-59
2024/03/10 03:39:09;;;;;;;6.30;6.10;;;24.10;1.00;;;;;;2612578;54;20170;-60
2024/03/10 03:41:35;;;;;;;6.33;6.13;;;24.20;1.00;;;;;;2613041;54;20159;-60
2024/03/10 03:44:04;;;;;;;6.20;6.00;;;24.20;1.00;;;;;;2611089;47;20430;-59
2024/03/10 03:46:38;;;;;;;6.10;5.90;;;24.20;1.00;;;;;;2611851;54;20395;-58
2024/03/10 03:49:04;;;;;;;6.20;6.00;;;24.30;1.00;;;;;;2612469;54;20411;-59
2024/03/10 03:51:30;;;;;;;6.20;6.00;;;24.30;1.00;;;;;;2610581;54;20446;-59
2024/03/10 03:53:56;;;;;;;6.80;6.60;;;24.20;1.00;;;;;;2611037;54;20178;-59
2024/03/10 03:56:22;;;;;;;6.47;6.27;;;24.30;1.00;;;;;;2608776;39;20564;-59
2024/03/10 03:58:49;;;;;;;6.00;5.80;;;24.30;1.00;;;;;;2609669;39;20803;-59
2024/03/10 04:01:16;;;;;;;6.43;6.23;;;24.30;1.00;;;;;;2607940;54;20466;-62
2024/03/10 04:03:42;;;;;;;6.13;5.93;;;24.30;1.00;;;;;;2609441;54;20450;-59
2024/03/10 04:06:08;;;;;;;6.20;6.00;;;24.30;1.00;;;;;;2610574;54;20509;-60
2024/03/10 04:08:34;;;;;;;6.10;5.90;;;24.30;1.00;;;;;;2609327;47;20257;-60
2024/03/10 04:10:59;;;;;;;6.27;6.07;;;24.30;1.00;;;;;;2610125;54;20190;-61
2024/03/10 04:13:25;;;;;;;6.20;6.00;;;24.30;1.00;;;;;;2612110;47;20277;-60
2024/03/10 04:15:51;;;;;;;5.90;5.70;;;24.20;1.00;;;;;;2612697;31;20638;-60
2024/03/10 04:18:17;;;;;;;6.23;6.03;;;24.20;1.00;;;;;;2612112;54;20154;-59
2024/03/10 04:20:45;;;;;;;6.27;6.07;;;24.20;1.00;;;;;;2610819;54;20151;-59
2024/03/10 04:23:11;;;;;;;6.30;6.10;;;24.20;1.00;;;;;;2612073;54;20411;-59
2024/03/10 04:25:36;;;;;;;6.20;6.00;;;24.20;1.00;;;;;;2610543;31;20973;-58
2024/03/10 04:28:02;;;;;;;6.10;5.90;;;24.10;1.00;;;;;;2611327;54;20282;-58
2024/03/10 04:30:28;;;;;;;6.13;5.93;;;24.10;1.00;;;;;;2612253;39;20556;-59
2024/03/10 04:32:54;;;;;;;6.40;6.20;;;24.10;1.00;;;;;;2613004;54;20423;-59
2024/03/10 04:35:20;;;;;;;6.00;5.80;;;24.10;1.00;;;;;;2612229;54;20135;-58
2024/03/10 04:37:46;;;;;;;6.30;6.10;;;24.10;1.00;;;;;;2611671;54;20189;-59
2024/03/10 04:40:12;;;;;;;6.33;6.13;;;24.10;1.00;;;;;;2611489;54;20988;-58
2024/03/10 04:42:38;;;;;;;6.23;6.03;;;24.10;1.00;;;;;;2611686;54;20920;-58
2024/03/10 04:45:07;;;;;;;6.20;6.00;;;24.10;1.00;;;;;;2612736;54;20388;-59
2024/03/10 04:47:33;;;;;;;6.30;6.10;;;24.10;1.00;;;;;;2610606;54;20428;-58
2024/03/10 04:50:00;;;;;;;6.10;5.90;;;24.10;1.00;;;;;;2610081;47;20955;-59
2024/03/10 04:52:25;;;;;;;6.20;6.00;;;24.10;1.00;;;;;;2610830;54;20170;-59
2024/03/10 04:54:51;;;;;;;5.90;5.70;;;24.10;1.00;;;;;;2610225;47;20422;-59
2024/03/10 04:57:18;;;;;;;6.10;5.90;;;24.10;1.00;;;;;;2609754;47;20445;-59
2024/03/10 04:59:44;;;;;;;6.33;6.13;;;24.10;1.00;;;;;;2612336;39;20595;-57
2024/03/10 05:02:10;;;;;;;6.00;5.80;;;24.10;1.00;;;;;;2611534;54;20408;-59
2024/03/10 05:04:36;;;;;;;6.07;5.87;;;24.10;1.00;;;;;;2609171;54;20158;-59
2024/03/10 05:07:01;;;;;;;6.00;5.80;;;24.10;1.00;;;;;;2610390;54;20999;-58
2024/03/10 05:09:27;;;;;;;6.20;6.00;;;24.30;1.00;;;;;;2611314;54;20171;-58
2024/03/10 05:11:53;;;;;;;6.50;6.30;;;24.20;1.00;;;;;;2610726;54;20166;-59
2024/03/10 05:14:18;;;;;;;6.10;5.90;;;24.30;1.00;;;;;;2610654;54;20155;-59
2024/03/10 05:16:44;;;;;;;6.10;5.90;;;24.30;1.00;;;;;;2611851;54;20278;-56
2024/03/10 05:19:09;;;;;;;7.00;6.80;;;24.30;1.00;;;;;;2611028;54;20167;-59
2024/03/10 05:21:35;;;;;;;6.70;6.50;;;24.30;1.00;;;;;;2610935;47;20162;-60
2024/03/10 05:24:02;;;;;;;6.23;6.03;;;24.30;1.00;;;;;;2610321;54;20158;-61
2024/03/10 05:26:27;;;;;;;6.40;6.20;;;24.40;1.00;;;;;;2610484;47;20431;-60
2024/03/10 05:28:53;;;;;;;6.60;6.40;;;24.40;1.00;;;;;;2610642;54;20418;-60
2024/03/10 05:31:29;;;;;;;6.40;6.20;;;24.40;1.00;;;;;;2612460;54;20159;-59
2024/03/10 05:33:57;;;;;;;6.00;5.80;;;24.30;1.00;;;;;;2611281;39;20621;-59
2024/03/10 05:36:24;;;;;;;6.20;6.00;;;24.20;1.00;;;;;;2609991;54;20404;-59
2024/03/10 05:38:50;;;;;;;8.17;7.87;;;24.20;1.00;;;;;;2609802;54;20427;-58
2024/03/10 05:41:15;;;;;;;6.43;6.23;;;24.20;1.00;;;;;;2611556;54;20526;-59
2024/03/10 05:43:42;;;;;;;9.70;9.30;;;24.20;1.00;;;;;;2610848;54;20310;-58
2024/03/10 05:46:09;;;;;;;6.00;5.80;;;24.20;1.00;;;;;;2612556;54;20155;-58
2024/03/10 05:48:34;;;;;;;6.20;6.00;;;24.20;1.00;;;;;;2611360;54;20406;-58
2024/03/10 05:51:00;;;;;;;6.30;6.10;;;24.20;1.00;;;;;;2611160;54;20391;-58
2024/03/10 05:53:27;;;;;;;6.20;6.00;;;24.20;1.00;;;;;;2611214;54;20241;-57
2024/03/10 05:55:54;;;;;;;6.70;6.50;;;24.20;1.00;;;;;;2607760;54;20435;-58
2024/03/10 05:58:21;;;;;;;6.50;6.30;;;24.20;1.00;;;;;;2611380;54;20406;-58
2024/03/10 06:00:48;;;;;;;6.27;6.07;;;24.10;1.00;;;;;;2608193;54;21261;-58
2024/03/10 06:03:14;;;;;;;6.47;6.27;;;24.10;1.00;;;;;;2610806;54;20419;-57
2024/03/10 06:05:40;;;;;;;5.90;5.70;;;24.10;1.00;;;;;;2607156;54;20495;-58
2024/03/10 06:08:08;;;;;;;5.83;5.63;;;24.10;1.00;;;;;;2608704;54;21464;-58
2024/03/10 06:10:34;;;;;;;6.00;5.80;;;24.10;1.00;;;;;;2609509;54;20550;-59
2024/03/10 06:12:59;;;;;;;6.10;5.90;;;24.10;1.00;;;;;;2611994;54;20431;-59
2024/03/10 06:15:25;;;;;;;6.50;6.30;;;24.10;1.00;;;;;;2610505;54;20170;-59
2024/03/10 06:18:03;;;;;;;5.90;5.70;;;24.10;1.00;;;;;;2611467;54;20607;-58
2024/03/10 06:25:22;;;;;;;6.10;5.90;;;24.10;1.00;;;;;;2610903;54;20952;-58
2024/03/10 06:26:21;;;;;;;5.83;5.63;;;24.10;1.00;;;;;;2610056;54;20431;-57
2024/03/10 06:28:49;;;;;;;5.87;5.67;;;24.10;1.00;;;;;;2609869;54;20427;-58
2024/03/10 06:31:18;;;;;;;6.10;5.90;;;24.20;1.00;;;;;;2611221;54;20519;-60
2024/03/10 06:33:44;;;;;;;5.90;5.70;;;24.20;1.00;;;;;;2612420;54;20422;-59
2024/03/10 06:36:11;;;;;;;5.80;5.60;;;24.20;1.00;;;;;;2613152;54;20407;-59
2024/03/10 06:38:41;;;;;;;5.80;5.60;;;24.20;1.00;;;;;;2609686;54;20171;-59
2024/03/10 06:41:11;;;;;;;5.93;5.73;;;24.20;1.00;;;;;;2610407;47;20430;-59
2024/03/10 06:43:40;;;;;;;5.77;5.57;;;24.20;1.00;;;;;;2610307;54;20396;-58
2024/03/10 06:46:09;;;;;;;6.20;6.00;;;24.20;1.00;;;;;;2611316;54;20427;-59
2024/03/10 06:48:35;;;;;;;5.40;5.20;;;24.20;1.00;;;;;;2611199;54;20406;-58
2024/03/10 06:51:01;;;;;;;5.70;5.50;;;24.20;1.00;;;;;;2610293;54;20395;-58
2024/03/10 06:53:27;;;;;;;6.30;6.10;;;24.20;1.00;;;;;;2611546;54;20443;-57
2024/03/10 06:55:55;;;;;;;6.10;5.90;;;24.20;1.00;;;;;;2611048;54;20703;-58
2024/03/10 06:58:21;;;;;;;5.90;5.70;;;24.20;1.00;;;;;;2609204;54;20190;-57
2024/03/10 07:00:47;;;;;;;5.97;5.77;;;24.20;1.00;;;;;;2610224;54;20387;-57
2024/03/10 07:03:13;;;;;;;5.73;5.53;;;24.20;1.00;;;;;;2609940;54;20412;-58
2024/03/10 07:05:41;;;;;;;5.73;5.53;;;24.20;1.00;;;;;;2610048;54;20301;-58
2024/03/10 07:08:07;;;;;;;6.17;5.97;;;24.30;1.00;;;;;;2611789;39;20749;-58
2024/03/10 07:10:35;;;;;;;6.00;5.80;;;24.30;1.00;;;;;;2609982;47;20415;-58
2024/03/10 07:13:05;;;;;;;6.40;6.20;;;24.30;1.00;;;;;;2608538;54;20402;-59
2024/03/10 07:15:31;;;;;;;5.47;5.27;;;24.30;1.00;;;;;;2608342;54;20426;-57
2024/03/10 07:17:57;;;;;;;7.10;6.90;;;24.30;1.00;;;;;;2609963;54;20443;-58
2024/03/10 07:20:24;;;;;;;7.10;6.90;;;24.30;1.00;;;;;;2609821;54;20376;-57
2024/03/10 07:22:50;;;;;;;8.30;8.00;;;24.40;1.00;;;;;;2611708;54;20400;-58
2024/03/10 07:25:16;;;;;;;8.43;8.13;;;24.40;1.00;;;;;;2610111;54;20999;-57
2024/03/10 07:27:43;;;;;;;7.50;7.30;;;24.50;1.00;;;;;;2611535;54;20395;-54
2024/03/10 07:30:09;;;;;;;7.50;7.30;;;24.60;1.00;;;;;;2610971;54;20150;-53
2024/03/10 07:32:35;;;;;;;7.50;7.30;;;24.60;1.00;;;;;;2612063;54;20396;-53
2024/03/10 07:35:01;;;;;;;7.50;7.30;;;24.70;1.00;;;;;;2611439;54;20469;-55
2024/03/10 07:37:27;;;;;;;6.40;6.20;;;24.70;1.00;;;;;;2611637;54;20466;-57
2024/03/10 07:39:53;;;;;;;6.97;6.77;;;24.80;1.00;;;;;;2611749;54;20407;-60
2024/03/10 07:42:20;;;;;;;7.03;6.83;;;24.80;1.00;;;;;;2610388;54;20961;-59
2024/03/10 07:44:45;;;;;;;7.20;7.00;;;24.80;1.00;;;;;;2611059;54;20395;-61
2024/03/10 07:47:12;;;;;;;8.13;7.83;;;24.90;1.00;;;;;;2611965;54;20387;-61
2024/03/10 07:49:38;;;;;;;7.53;7.33;;;24.80;1.00;;;;;;2611821;54;20178;-60
2024/03/10 07:52:05;;;;;;;7.47;7.27;;;24.80;1.00;;;;;;2611436;54;20400;-61
2024/03/10 07:54:31;;;;;;;7.00;6.80;;;24.90;1.00;;;;;;2611699;54;20175;-60
2024/03/10 07:56:57;;;;;;;7.40;7.20;;;25.00;1.00;;;;;;2611620;39;20781;-60
2024/03/10 07:59:22;;;;;;;7.03;6.83;;;25.00;1.00;;;;;;2611926;54;20483;-61
2024/03/10 08:01:51;;;;;;;7.20;7.00;;;25.00;1.00;;;;;;2611851;54;20139;-62
2024/03/10 08:04:18;;;;;;;7.20;7.00;;;25.10;1.00;;;;;;2611975;54;20488;-63
2024/03/10 08:06:44;;;;;;;7.60;7.40;;;25.10;1.00;;;;;;2611341;54;20438;-60
2024/03/10 08:09:10;;;;;;;7.40;7.20;;;25.10;1.00;;;;;;2611934;52;20411;-60
2024/03/10 08:11:35;;;;;;;7.30;7.10;;;25.50;1.00;;;;;;2612624;54;20430;-59
2024/03/10 08:14:01;;;;;;;7.60;7.40;;;25.60;1.00;;;;;;2612682;47;20189;-59
2024/03/10 08:16:27;;;;;;;7.60;7.40;;;25.70;1.00;;;;;;2611537;54;20197;-58
2024/03/10 08:18:53;;;;;;;7.70;7.50;;;25.80;1.00;;;;;;2612033;39;20526;-60
2024/03/10 08:21:18;;;;;;;6.90;6.70;;;25.80;1.00;;;;;;2611481;54;20411;-59
2024/03/10 08:23:44;;;;;;;7.10;6.90;;;25.90;1.00;;;;;;2612050;54;20173;-60
2024/03/10 08:26:10;;;;;;;7.30;7.10;;;25.90;1.00;;;;;;2612236;39;20498;-60
2024/03/10 08:28:36;;;;;;;10.50;10.20;;;25.90;1.00;;;;;;2610584;54;20196;-60
2024/03/10 08:31:03;;;;;;;10.10;9.80;;;26.00;1.00;;;;;;2612360;47;20171;-60
2024/03/10 08:33:29;;;;;;;11.90;11.50;;;25.90;1.00;;;;;;2611985;54;20940;-60
2024/03/10 08:35:55;;;;;;;11.10;10.80;;;25.90;1.00;;;;;;2612075;54;20531;-59
2024/03/10 08:38:21;;;;;;;11.67;11.27;;;25.90;1.00;;;;;;2612260;54;20740;-59
2024/03/10 08:40:47;;;;;;;10.23;9.93;;;26.00;1.00;;;;;;2612368;47;20734;-59
2024/03/10 08:43:13;;;;;;;8.17;7.90;;;26.00;1.00;;;;;;2612179;54;20197;-58
2024/03/10 08:45:39;;;;;;;8.60;8.30;;;26.10;1.00;;;;;;2611362;54;20549;-61
2024/03/10 08:48:09;;;;;;;10.60;10.30;;;26.10;1.00;;;;;;2611551;54;20412;-60
2024/03/10 08:50:35;;;;;;;14.33;13.83;;;26.10;1.00;;;;;;2611985;47;20522;-62
2024/03/10 08:53:03;;;;;;;13.80;13.37;;;26.00;1.00;;;;;;2611867;54;20466;-62
2024/03/10 08:55:30;;;;;;;7.70;7.50;;;26.10;1.00;;;;;;2612127;39;20786;-60
2024/03/10 08:57:55;;;;;;;6.77;6.57;;;26.10;1.00;;;;;;2612026;54;20757;-60
2024/03/10 09:00:21;;;;;;;6.50;6.30;;;26.10;1.00;;;;;;2611848;54;20206;-63
2024/03/10 09:02:47;;;;;;;11.40;11.00;;;26.00;1.00;;;;;;2612479;54;20151;-62
2024/03/10 09:05:15;;;;;;;9.37;9.07;;;26.00;1.00;;;;;;2612865;54;20167;-64
2024/03/10 09:07:41;;;;;;;9.80;9.50;;;26.10;1.00;;;;;;2613143;54;20170;-63
2024/03/10 09:10:08;;;;;;;11.10;10.50;;;26.10;1.00;;;;;;2612715;50;20427;-63
2024/03/10 09:12:34;;;;;;;5.90;5.70;;;26.10;1.00;;;;;;2612077;54;20435;-71
2024/03/10 09:15:00;;;;;;;6.70;6.50;;;26.00;1.00;;;;;;2612482;54;20514;-65
2024/03/10 09:17:25;;;;;;;6.20;6.00;;;26.00;1.00;;;;;;2611993;47;20269;-65
2024/03/10 09:19:51;;;;;;;12.10;11.70;;;26.00;1.00;;;;;;2612225;54;20410;-68
2024/03/10 09:22:17;;;;;;;5.23;5.07;;;26.00;1.00;;;;;;2611683;54;20177;-70
2024/03/10 09:24:43;;;;;;;12.10;11.70;;;26.10;1.00;;;;;;2612812;54;20723;-66
2024/03/10 09:27:09;;;;;;;11.13;10.83;;;26.10;1.00;;;;;;2611571;47;20155;-69
2024/03/10 09:29:35;;;;;;;11.50;11.10;;;26.10;1.00;;;;;;2612639;47;20193;-70
2024/03/10 09:32:06;;;;;;;11.30;11.00;;;26.10;1.00;;;;;;2612867;54;20396;-67
2024/03/10 09:34:32;;;;;;;4.20;4.10;;;26.10;1.00;;;;;;2612642;54;20442;-67
2024/03/10 09:36:58;;;;;;;4.57;4.47;;;26.10;1.00;;;;;;2612206;39;20889;-65
2024/03/10 09:39:24;;;;;;;10.20;9.90;;;26.00;1.00;;;;;;2611884;54;20492;-65
2024/03/10 09:41:51;;;;;;;11.63;11.23;;;26.00;1.00;;;;;;2611862;54;20162;-64
2024/03/10 09:44:18;;;;;;;11.70;11.30;;;26.00;1.00;;;;;;2609737;54;20592;-67
2024/03/10 09:46:48;;;;;;;10.87;10.57;;;26.10;1.00;;;;;;2611447;54;20446;-63
2024/03/10 09:49:16;;;;;;;10.90;10.60;;;26.10;1.00;;;;;;2611678;54;20535;-63
2024/03/10 09:51:52;;;;;;;10.77;10.47;;;26.20;1.00;;;;;;2612290;54;20396;-63
2024/03/10 09:54:19;;;;;;;11.30;11.00;;;26.20;1.00;;;;;;2611799;54;20494;-63
2024/03/10 09:56:50;;;;;;;11.00;10.70;;;26.20;1.00;;;;;;2611340;54;20399;-70
2024/03/10 09:59:24;;;;;;;4.40;4.27;;;26.20;1.00;;;;;;2611021;54;20490;-62
2024/03/10 10:01:53;;;;;;;9.80;9.50;;;26.10;1.00;;;;;;2611399;54;20411;-63
2024/03/10 10:04:25;;;;;;;10.70;10.40;;;26.00;1.00;;;;;;2611638;54;20391;-60
2024/03/10 10:06:52;;;;;;;10.80;10.50;;;26.00;1.00;;;;;;2611666;54;20422;-64
2024/03/10 10:09:18;;;;;;;10.60;10.30;;;26.00;1.00;;;;;;2611983;47;20423;-64
2024/03/10 10:11:47;;;;;;;10.90;10.60;;;26.00;1.00;;;;;;2612154;54;20419;-65
2024/03/10 10:14:22;;;;;;;3.07;2.97;;;26.10;1.00;;;;;;2611969;54;20180;-61
2024/03/10 10:16:55;;;;;;;2.70;2.60;;;26.10;1.00;;;;;;2611895;54;20438;-63
2024/03/10 10:19:22;;;;;;;3.30;3.20;;;26.00;1.00;;;;;;2610692;54;20420;-62
2024/03/10 10:21:47;;;;;;;2.70;2.60;;;26.00;1.00;;;;;;2610252;47;20415;-61
2024/03/10 10:24:13;;;;;;;2.67;2.57;;;26.10;1.00;;;;;;2611120;39;20894;-63
2024/03/10 10:26:40;;;;;;;12.30;11.90;;;26.10;1.00;;;;;;2611015;54;20165;-60
2024/03/10 10:29:09;;;;;;;12.30;11.90;;;26.20;1.00;;;;;;2611299;54;20395;-60
2024/03/10 10:31:37;;;;;;;12.20;11.80;;;26.20;1.00;;;;;;2611320;54;20431;-61
2024/03/10 10:34:05;;;;;;;11.47;11.10;;;26.30;1.00;;;;;;2611636;54;20535;-62
2024/03/10 10:36:35;;;;;;;6.60;6.40;;;26.40;1.00;;;;;;2611091;54;20458;-62
2024/03/10 10:39:01;;;;;;;7.10;6.90;;;26.60;1.00;;;;;;2611855;54;20418;-61
2024/03/10 10:41:27;;;;;;;6.87;6.67;;;26.70;1.00;;;;;;2611410;54;20427;-63
2024/03/10 10:43:54;;;;;;;5.80;5.60;;;26.70;1.00;;;;;;2612173;39;20813;-63
2024/03/10 10:46:20;;;;;;;6.13;5.93;;;26.60;1.00;;;;;;2612449;54;20420;-65
2024/03/10 10:48:47;;;;;;;6.20;6.00;;;26.60;1.00;;;;;;2612278;54;20442;-62
2024/03/10 10:51:14;;;;;;;6.20;6.00;;;26.60;1.00;;;;;;2611646;54;20410;-63
2024/03/10 10:53:43;;;;;;;6.90;6.70;;;26.60;1.00;;;;;;2612642;54;20428;-61
2024/03/10 10:56:11;;;;;;;10.70;10.30;;;26.10;1.00;;;;;;2612967;54;20438;-61
2024/03/10 10:58:37;;;;;;;13.60;13.20;;;25.50;1.00;;;;;;2611929;54;20407;-60
2024/03/10 11:01:07;;;;;;;13.23;12.83;;;25.00;1.00;;;;;;2611141;54;20542;-61
2024/03/10 11:03:39;;;;;;;12.70;12.30;;;24.60;1.00;;;;;;2610805;54;20410;-61
2024/03/10 11:06:08;;;;;;;12.70;12.30;;;24.20;1.00;;;;;;2612954;39;20900;-60
2024/03/10 11:08:35;;;;;;;12.90;12.50;;;24.10;1.00;;;;;;2611349;54;20431;-61
2024/03/10 11:11:02;;;;;;;13.40;13.00;;;24.20;1.00;;;;;;2613053;54;20416;-64
2024/03/10 11:13:28;;;;;;;12.77;12.37;;;24.20;1.00;;;;;;2610864;54;20401;-63
2024/03/10 11:16:23;;;;;;;13.70;13.20;;;24.10;1.00;;;;;;2612650;54;21138;-62
2024/03/10 11:18:49;;;;;;;6.40;6.20;;;24.10;1.00;;;;;;2610950;47;20407;-60
2024/03/10 11:21:17;;;;;;;6.30;6.10;;;24.20;1.00;;;;;;2612370;39;21192;-71
2024/03/10 11:23:44;;;;;;;5.57;5.37;;;24.80;1.00;;;;;;2612311;54;20151;-66
2024/03/10 11:26:18;;;;;;;5.77;5.57;;;25.10;1.00;;;;;;2611067;54;20390;-66
2024/03/10 11:28:54;;;;;;;5.20;5.00;;;24.80;1.00;;;;;;2612026;47;20418;-69
2024/03/10 11:31:23;;;;;;;7.17;6.97;;;24.40;1.00;;;;;;2612617;47;20465;-67
2024/03/10 11:33:54;;;;;;;5.57;5.37;;;24.20;1.00;;;;;;2611514;54;20798;-67
2024/03/10 11:36:22;;;;;;;6.10;5.90;;;24.10;1.00;;;;;;2611342;39;20800;-65
2024/03/10 11:38:55;;;;;;;5.37;5.17;;;24.10;1.00;;;;;;2611170;54;20499;-65
2024/03/10 11:41:23;;;;;;;8.10;7.80;;;23.90;1.00;;;;;;2610467;54;21015;-69
2024/03/10 11:43:48;;;;;;;3.30;3.20;;;24.10;1.00;;;;;;2612450;39;20832;-66
2024/03/10 11:46:19;;;;;;;2.20;2.10;;;24.50;1.00;;;;;;2612298;47;20411;-66
2024/03/10 11:48:55;;;;;;;2.20;2.10;;;24.80;1.00;;;;;;2612298;54;20146;-67
2024/03/10 11:51:27;;;;;;;1.97;1.87;;;25.00;1.00;;;;;;2613996;39;20485;-67
2024/03/10 11:53:57;;;;;;;2.20;2.10;;;25.20;1.00;;;;;;2611857;54;20431;-67
2024/03/10 11:56:23;;;;;;;2.10;2.00;;;25.20;1.00;;;;;;2610467;39;21791;-67
2024/03/10 11:58:51;;;;;;;2.27;2.17;;;25.20;1.00;;;;;;2613045;39;20844;-67
2024/03/10 12:01:17;;;;;;;2.30;2.20;;;25.30;1.00;;;;;;2611325;54;20925;-67
2024/03/10 12:03:50;;;;;;;2.30;2.20;;;25.30;1.00;;;;;;2611686;54;20425;-67
2024/03/10 12:06:16;;;;;;;2.30;2.20;;;25.30;1.00;;;;;;2612610;39;20832;-67
2024/03/10 12:08:43;;;;;;;2.30;2.20;;;25.30;1.00;;;;;;2612628;54;20407;-65
2024/03/10 12:11:10;;;;;;;2.33;2.23;;;25.20;1.00;;;;;;2612015;54;20933;-67
2024/03/10 12:13:43;;;;;;;2.20;2.10;;;25.20;1.00;;;;;;2612436;39;20795;-67
2024/03/10 12:16:11;;;;;;;2.30;2.20;;;25.20;1.00;;;;;;2612052;54;20415;-68
2024/03/10 12:18:38;;;;;;;2.50;2.40;;;25.20;1.00;;;;;;2612173;39;20778;-68
2024/03/10 12:21:06;;;;;;;2.50;2.40;;;25.20;1.00;;;;;;2611894;54;20399;-61
2024/03/10 12:23:36;;;;;;;3.07;2.97;;;25.20;1.00;;;;;;2612250;54;20447;-62
2024/03/10 12:26:12;;;;;;;2.70;2.60;;;25.20;1.00;;;;;;2611870;39;20854;-61
2024/03/10 12:28:39;;;;;;;2.63;2.53;;;25.20;1.00;;;;;;2610751;54;20963;-62
2024/03/10 12:31:14;;;;;;;2.70;2.60;;;25.30;1.00;;;;;;2612652;39;20899;-60
2024/03/10 12:33:43;;;;;;;2.80;2.70;;;25.30;1.00;;;;;;2611482;54;20395;-61
2024/03/10 12:36:12;;;;;;;2.40;2.30;;;25.30;1.00;;;;;;2612938;54;20400;-61
2024/03/10 12:38:43;;;;;;;2.40;2.30;;;25.30;1.00;;;;;;2612160;54;20396;-61
2024/03/10 12:41:13;;;;;;;2.37;2.27;;;25.20;1.00;;;;;;2612708;54;20458;-60
2024/03/10 12:43:41;;;;;;;2.20;2.10;;;25.20;1.00;;;;;;2610921;54;20516;-62
2024/03/10 12:46:11;;;;;;;2.27;2.17;;;25.20;1.00;;;;;;2611698;54;20434;-60
2024/03/10 12:48:38;;;;;;;2.70;2.60;;;25.20;1.00;;;;;;2612507;54;20387;-61
2024/03/10 12:51:06;;;;;;;3.70;3.60;;;25.20;1.00;;;;;;2610900;54;20917;-62
2024/03/10 12:53:32;;;;;;;2.50;2.40;;;25.20;1.00;;;;;;2612500;54;20456;-62
2024/03/10 12:55:58;;;;;;;2.50;2.40;;;25.20;1.00;;;;;;2612945;39;20916;-61
2024/03/10 12:58:24;;;;;;;2.50;2.40;;;25.20;1.00;;;;;;2611872;54;20426;-61
2024/03/10 13:00:52;;;;;;;2.70;2.60;;;25.20;1.00;;;;;;2611627;39;20803;-61
2024/03/10 13:03:18;;;;;;;2.60;2.50;;;25.30;1.00;;;;;;2611051;54;20162;-61
2024/03/10 13:05:43;;;;;;;2.77;2.67;;;25.20;1.00;;;;;;2610903;54;20926;-63
2024/03/10 13:08:12;;;;;;;2.73;2.63;;;25.20;1.00;;;;;;2612876;39;20874;-60
2024/03/10 13:10:42;;;;;;;2.50;2.40;;;25.20;1.00;;;;;;2612549;54;20163;-61
2024/03/10 13:13:08;;;;;;;2.70;2.60;;;25.10;1.00;;;;;;2612007;54;20407;-61
2024/03/10 13:15:37;;;;;;;2.50;2.40;;;25.20;1.00;;;;;;2612816;54;20435;-60